Voyageurs National Park, MN

12:59 AM CDT on September 20, 2014 (GMT -0500)
Wayside Lane | Change Station
CLOSE
Current Station
Personal Weather Station
Location: International Falls, MN
Elevation: 1115 ft
Nearby Weather Stations

Elev 1115 ft 48.60 °N, 93.42 °W | Updated 6 minutes ago

Clear
Clear
58.1 °F
Feels Like 58.1 °F
N
0.0
Wind Variable Wind from WSW
Gusts 2.0 mph

Today
High -- | Low -- °F
--% Chance of Precip.
Yesterday
High -- | Low -- °F
Precip. -- in
6:57 AM 7:15 PM
Waning Crescent, 14% visible
Pressure 29.57 in
Visibility 10.0 miles
Clouds Clear
Dew Point 58 °F
Humidity 98%
Rainfall 0.00 in
Snow Depth Not available.
UV 0 out of 12
Pollen .40 out of 12
Air Quality Not available.
Flu Activity Not available.
METAR KINL 200555Z AUTO 25005KT 10SM CLR 14/13 A2956 RMK AO2 VIS 2 RWY 31 SLP011 60084 T01390133 10178 20133 401780122 55005

More Conditions Fewer Conditions

Pressure 29.57 in
Visibility 10.0 miles
Clouds Clear
Dew Point 58 °F
Humidity 98%
Rainfall 0.00 in
Snow Depth Not available.
UV 0 out of 12
Pollen .40 out of 12
Air Quality Not available.
Flu Activity Not available.
METAR KINL 200555Z AUTO 25005KT 10SM CLR 14/13 A2956 RMK AO2 VIS 2 RWY 31 SLP011 60084 T01390133 10178 20133 401780122 55005

More Conditions Fewer Conditions

10-Day Weather Forecast

Almanac

Astronomy

Sep. 20, 2014 Rise Set
Actual Time 6:57 AM CDT 7:15 PM CDT
Civil Twilight 6:26 AM CDT 7:47 PM CDT
Nautical Twilight 5:48 AM CDT 8:24 PM CDT
Astronomical Twilight 5:10 AM CDT 9:02 PM CDT
Moon 3:24 AM CDT 5:30 PM CDT
Length of Visible Light 13h 20m
Length of Day
12h 18m
Tomorrow will be 3m 32s shorter.
Waning Crescent, 14% of the Moon is Illuminated
Today
Waning Crescent
Sep 24
New
Oct 1
First Quarter
Oct 8
Full
Oct 15
Last Quarter

Today's Extremes

State Highs State Lows

Community

WunderPhotos

Upload Photos

1,754,777 photos uploaded!

WunderBlogs® & News

Nearby

Snow Depth

Station Depth Elevation
No new snow has been reported.

Earthquake Activity

City Distance Mag. Time & Date
No recent earthquake activity has been reported nearby.
Minimum magnitude displayed is 2.5.

Coastal Water Temperatures

Place Temperature
No Stations Reporting

Nearby Weather Stations